sensor_id;sensor_type;location;lat;lon;timestamp;pressure;altitude;pressure_sealevel;temperature;humidity
61697;BME280;47610;52.252;20.922;2023-02-18T00:00:47;99157.45;;;6.82;100.00
61697;BME280;47610;52.252;20.922;2023-02-18T00:05:53;99159.71;;;6.79;100.00
61697;BME280;47610;52.252;20.922;2023-02-18T00:10:57;99168.66;;;6.70;100.00
61697;BME280;47610;52.252;20.922;2023-02-18T00:16:11;99183.04;;;6.55;100.00
61697;BME280;47610;52.252;20.922;2023-02-18T00:21:17;99191.11;;;6.41;100.00
61697;BME280;47610;52.252;20.922;2023-02-18T00:26:19;99191.13;;;6.36;100.00
61697;BME280;47610;52.252;20.922;2023-02-18T00:38:37;99200.05;;;6.33;100.00
61697;BME280;47610;52.252;20.922;2023-02-18T00:43:40;99198.54;;;6.31;100.00
61697;BME280;47610;52.252;20.922;2023-02-18T00:48:47;99201.42;;;6.30;100.00
61697;BME280;47610;52.252;20.922;2023-02-18T00:53:51;99196.40;;;6.31;100.00
61697;BME280;47610;52.252;20.922;2023-02-18T00:58:56;99199.79;;;6.26;100.00
61697;BME280;47610;52.252;20.922;2023-02-18T01:03:59;99200.95;;;6.20;100.00
61697;BME280;47610;52.252;20.922;2023-02-18T01:09:03;99205.88;;;6.16;100.00
61697;BME280;47610;52.252;20.922;2023-02-18T01:14:08;99207.35;;;6.12;100.00
61697;BME280;47610;52.252;20.922;2023-02-18T01:19:17;99215.76;;;6.13;100.00
61697;BME280;47610;52.252;20.922;2023-02-18T01:24:22;99211.78;;;6.11;100.00
61697;BME280;47610;52.252;20.922;2023-02-18T01:29:30;99208.17;;;6.03;100.00
61697;BME280;47610;52.252;20.922;2023-02-18T01:34:35;99207.25;;;6.00;100.00
61697;BME280;47610;52.252;20.922;2023-02-18T01:39:38;99198.52;;;6.01;100.00
61697;BME280;47610;52.252;20.922;2023-02-18T01:44:42;99197.95;;;6.03;100.00
61697;BME280;47610;52.252;20.922;2023-02-18T01:49:49;99192.61;;;6.04;100.00
61697;BME280;47610;52.252;20.922;2023-02-18T01:54:56;99196.05;;;6.05;100.00
61697;BME280;47610;52.252;20.922;2023-02-18T02:00:09;99194.52;;;6.07;100.00
61697;BME280;47610;52.252;20.922;2023-02-18T02:05:14;99190.31;;;6.08;100.00
61697;BME280;47610;52.252;20.922;2023-02-18T02:10:19;99186.38;;;6.07;100.00
61697;BME280;47610;52.252;20.922;2023-02-18T02:15:36;99183.92;;;6.02;100.00
61697;BME280;47610;52.252;20.922;2023-02-18T02:26:49;99172.60;;;5.78;100.00
61697;BME280;47610;52.252;20.922;2023-02-18T02:32:18;99165.44;;;5.65;100.00
61697;BME280;47610;52.252;20.922;2023-02-18T02:37:37;99166.20;;;5.55;100.00
61697;BME280;47610;52.252;20.922;2023-02-18T02:42:52;99170.67;;;5.48;100.00
61697;BME280;47610;52.252;20.922;2023-02-18T02:48:02;99177.73;;;5.44;100.00
61697;BME280;47610;52.252;20.922;2023-02-18T02:58:33;99199.61;;;5.48;100.00
61697;BME280;47610;52.252;20.922;2023-02-18T03:03:57;99202.33;;;5.43;100.00
61697;BME280;47610;52.252;20.922;2023-02-18T03:09:12;99206.54;;;5.41;100.00
61697;BME280;47610;52.252;20.922;2023-02-18T03:14:26;99212.20;;;5.41;100.00
61697;BME280;47610;52.252;20.922;2023-02-18T03:19:37;99214.38;;;5.40;100.00
61697;BME280;47610;52.252;20.922;2023-02-18T03:24:45;99222.67;;;5.36;100.00
61697;BME280;47610;52.252;20.922;2023-02-18T03:29:55;99224.31;;;5.33;100.00
61697;BME280;47610;52.252;20.922;2023-02-18T03:35:07;99225.61;;;5.30;100.00
61697;BME280;47610;52.252;20.922;2023-02-18T03:40:16;99229.91;;;5.27;100.00
61697;BME280;47610;52.252;20.922;2023-02-18T03:45:20;99230.67;;;5.26;100.00
61697;BME280;47610;52.252;20.922;2023-02-18T03:50:23;99247.92;;;5.26;100.00
61697;BME280;47610;52.252;20.922;2023-02-18T03:55:28;99255.77;;;5.25;100.00
61697;BME280;47610;52.252;20.922;2023-02-18T04:00:33;99258.72;;;5.23;100.00
61697;BME280;47610;52.252;20.922;2023-02-18T04:05:36;99259.59;;;5.23;100.00
61697;BME280;47610;52.252;20.922;2023-02-18T04:10:40;99264.98;;;5.21;100.00
61697;BME280;47610;52.252;20.922;2023-02-18T04:15:43;99268.06;;;5.15;100.00
61697;BME280;47610;52.252;20.922;2023-02-18T04:20:49;99276.20;;;5.16;100.00
61697;BME280;47610;52.252;20.922;2023-02-18T04:25:53;99274.06;;;5.15;100.00
61697;BME280;47610;52.252;20.922;2023-02-18T04:30:56;99274.27;;;5.14;100.00
61697;BME280;47610;52.252;20.922;2023-02-18T04:36:00;99276.34;;;5.12;100.00
61697;BME280;47610;52.252;20.922;2023-02-18T04:41:06;99276.83;;;5.10;100.00
61697;BME280;47610;52.252;20.922;2023-02-18T04:46:12;99275.67;;;5.08;100.00
61697;BME280;47610;52.252;20.922;2023-02-18T04:51:16;99271.42;;;5.06;100.00
61697;BME280;47610;52.252;20.922;2023-02-18T04:56:20;99277.80;;;5.05;100.00
61697;BME280;47610;52.252;20.922;2023-02-18T05:01:24;99277.40;;;5.01;100.00
61697;BME280;47610;52.252;20.922;2023-02-18T05:06:27;99281.04;;;4.99;100.00
61697;BME280;47610;52.252;20.922;2023-02-18T05:17:36;99278.61;;;4.93;100.00
61697;BME280;47610;52.252;20.922;2023-02-18T05:22:41;99292.30;;;4.93;100.00
61697;BME280;47610;52.252;20.922;2023-02-18T05:27:45;99296.98;;;4.93;100.00
61697;BME280;47610;52.252;20.922;2023-02-18T05:32:49;99296.15;;;4.89;100.00
61697;BME280;47610;52.252;20.922;2023-02-18T05:37:52;99301.24;;;4.84;100.00
61697;BME280;47610;52.252;20.922;2023-02-18T05:42:58;99313.72;;;4.80;100.00
61697;BME280;47610;52.252;20.922;2023-02-18T05:48:04;99317.18;;;4.77;100.00
61697;BME280;47610;52.252;20.922;2023-02-18T05:53:08;99315.16;;;4.75;100.00
61697;BME280;47610;52.252;20.922;2023-02-18T05:58:12;99322.39;;;4.73;100.00
61697;BME280;47610;52.252;20.922;2023-02-18T06:03:16;99333.48;;;4.74;100.00
61697;BME280;47610;52.252;20.922;2023-02-18T06:08:19;99329.56;;;4.76;100.00
61697;BME280;47610;52.252;20.922;2023-02-18T06:13:23;99336.51;;;4.77;100.00
61697;BME280;47610;52.252;20.922;2023-02-18T06:18:27;99344.20;;;4.80;100.00
61697;BME280;47610;52.252;20.922;2023-02-18T06:23:30;99348.10;;;4.83;100.00
61697;BME280;47610;52.252;20.922;2023-02-18T06:28:34;99340.96;;;4.85;100.00
61697;BME280;47610;52.252;20.922;2023-02-18T06:33:38;99352.52;;;4.86;100.00
61697;BME280;47610;52.252;20.922;2023-02-18T06:38:43;99362.36;;;4.89;100.00
61697;BME280;47610;52.252;20.922;2023-02-18T06:43:48;99369.09;;;4.93;100.00
61697;BME280;47610;52.252;20.922;2023-02-18T06:48:51;99358.06;;;4.99;100.00
61697;BME280;47610;52.252;20.922;2023-02-18T06:53:54;99373.66;;;4.99;100.00
61697;BME280;47610;52.252;20.922;2023-02-18T06:58:58;99381.05;;;5.02;100.00
61697;BME280;47610;52.252;20.922;2023-02-18T07:04:01;99392.81;;;5.08;100.00
61697;BME280;47610;52.252;20.922;2023-02-18T07:09:09;99388.12;;;5.18;100.00
61697;BME280;47610;52.252;20.922;2023-02-18T07:14:14;99387.16;;;5.31;100.00
61697;BME280;47610;52.252;20.922;2023-02-18T07:19:18;99398.26;;;5.45;100.00
61697;BME280;47610;52.252;20.922;2023-02-18T07:24:23;99393.42;;;5.67;100.00
61697;BME280;47610;52.252;20.922;2023-02-18T07:37:54;99404.39;;;6.76;100.00
61697;BME280;47610;52.252;20.922;2023-02-18T07:42:58;99400.16;;;8.15;100.00
61697;BME280;47610;52.252;20.922;2023-02-18T07:48:07;99405.38;;;8.65;100.00
61697;BME280;47610;52.252;20.922;2023-02-18T07:53:13;99400.05;;;8.50;100.00
61697;BME280;47610;52.252;20.922;2023-02-18T07:58:25;99403.52;;;8.52;100.00
61697;BME280;47610;52.252;20.922;2023-02-18T08:03:32;99418.52;;;8.15;100.00
61697;BME280;47610;52.252;20.922;2023-02-18T08:08:38;99412.88;;;7.73;100.00
61697;BME280;47610;52.252;20.922;2023-02-18T08:13:41;99409.31;;;7.48;100.00
61697;BME280;47610;52.252;20.922;2023-02-18T08:18:45;99410.04;;;7.41;100.00
61697;BME280;47610;52.252;20.922;2023-02-18T08:23:51;99403.73;;;7.46;100.00
61697;BME280;47610;52.252;20.922;2023-02-18T08:28:55;99411.14;;;7.52;100.00
61697;BME280;47610;52.252;20.922;2023-02-18T08:34:00;99413.92;;;7.70;100.00
61697;BME280;47610;52.252;20.922;2023-02-18T08:39:05;99413.62;;;7.91;100.00
61697;BME280;47610;52.252;20.922;2023-02-18T08:44:12;99409.30;;;8.18;100.00
61697;BME280;47610;52.252;20.922;2023-02-18T08:49:15;99420.86;;;8.18;100.00
61697;BME280;47610;52.252;20.922;2023-02-18T08:54:21;99428.73;;;8.14;100.00
61697;BME280;47610;52.252;20.922;2023-02-18T08:59:24;99429.61;;;8.04;100.00
61697;BME280;47610;52.252;20.922;2023-02-18T09:04:28;99438.33;;;8.13;100.00
61697;BME280;47610;52.252;20.922;2023-02-18T09:09:32;99436.17;;;8.46;100.00
61697;BME280;47610;52.252;20.922;2023-02-18T09:14:40;99441.95;;;8.46;100.00
61697;BME280;47610;52.252;20.922;2023-02-18T09:19:44;99445.80;;;8.60;100.00
61697;BME280;47610;52.252;20.922;2023-02-18T09:24:48;99450.18;;;8.53;100.00
61697;BME280;47610;52.252;20.922;2023-02-18T09:29:54;99457.27;;;8.44;100.00
61697;BME280;47610;52.252;20.922;2023-02-18T09:34:58;99461.73;;;8.34;100.00
61697;BME280;47610;52.252;20.922;2023-02-18T09:40:02;99465.52;;;8.24;100.00
61697;BME280;47610;52.252;20.922;2023-02-18T09:45:06;99473.30;;;8.13;100.00
61697;BME280;47610;52.252;20.922;2023-02-18T09:57:23;99483.45;;;7.85;100.00
61697;BME280;47610;52.252;20.922;2023-02-18T10:02:33;99491.79;;;7.68;100.00
61697;BME280;47610;52.252;20.922;2023-02-18T10:07:43;99498.88;;;7.56;100.00
61697;BME280;47610;52.252;20.922;2023-02-18T10:12:52;99496.95;;;7.39;100.00
61697;BME280;47610;52.252;20.922;2023-02-18T10:18:10;99508.78;;;7.31;100.00
61697;BME280;47610;52.252;20.922;2023-02-18T10:23:22;99506.80;;;7.35;100.00
61697;BME280;47610;52.252;20.922;2023-02-18T10:28:32;99505.84;;;7.57;100.00
61697;BME280;47610;52.252;20.922;2023-02-18T10:33:44;99505.89;;;7.79;100.00
61697;BME280;47610;52.252;20.922;2023-02-18T10:39:01;99499.16;;;8.07;100.00
61697;BME280;47610;52.252;20.922;2023-02-18T10:44:16;99498.09;;;8.15;100.00
61697;BME280;47610;52.252;20.922;2023-02-18T10:49:39;99490.85;;;8.24;100.00
61697;BME280;47610;52.252;20.922;2023-02-18T10:54:59;99481.58;;;8.28;100.00
61697;BME280;47610;52.252;20.922;2023-02-18T11:05:33;99478.21;;;8.20;100.00
61697;BME280;47610;52.252;20.922;2023-02-18T11:10:42;99478.92;;;8.06;100.00
61697;BME280;47610;52.252;20.922;2023-02-18T11:16:21;99475.36;;;7.93;100.00
61697;BME280;47610;52.252;20.922;2023-02-18T11:21:33;99477.86;;;7.84;100.00
61697;BME280;47610;52.252;20.922;2023-02-18T11:26:40;99466.92;;;7.80;100.00
61697;BME280;47610;52.252;20.922;2023-02-18T11:31:53;99464.96;;;7.78;100.00
61697;BME280;47610;52.252;20.922;2023-02-18T11:37:17;99455.00;;;7.77;100.00
61697;BME280;47610;52.252;20.922;2023-02-18T11:42:26;99465.02;;;7.77;100.00
61697;BME280;47610;52.252;20.922;2023-02-18T11:47:34;99448.83;;;7.75;100.00
61697;BME280;47610;52.252;20.922;2023-02-18T11:52:41;99442.93;;;7.78;100.00
61697;BME280;47610;52.252;20.922;2023-02-18T11:57:56;99438.60;;;8.03;100.00
61697;BME280;47610;52.252;20.922;2023-02-18T12:03:03;99432.19;;;8.12;100.00
61697;BME280;47610;52.252;20.922;2023-02-18T12:11:26;99433.92;;;8.38;100.00
61697;BME280;47610;52.252;20.922;2023-02-18T12:16:40;99420.79;;;8.66;100.00
61697;BME280;47610;52.252;20.922;2023-02-18T12:22:03;99422.30;;;8.75;100.00
61697;BME280;47610;52.252;20.922;2023-02-18T12:27:14;99421.14;;;8.69;100.00
61697;BME280;47610;52.252;20.922;2023-02-18T12:32:36;99420.77;;;8.61;100.00
61697;BME280;47610;52.252;20.922;2023-02-18T12:38:11;99408.25;;;8.56;100.00
61697;BME280;47610;52.252;20.922;2023-02-18T12:43:31;99399.66;;;8.54;100.00
61697;BME280;47610;52.252;20.922;2023-02-18T12:49:03;99400.08;;;8.49;100.00
61697;BME280;47610;52.252;20.922;2023-02-18T12:54:34;99389.58;;;8.51;100.00
61697;BME280;47610;52.252;20.922;2023-02-18T13:05:29;99387.02;;;8.41;100.00
61697;BME280;47610;52.252;20.922;2023-02-18T13:16:19;99367.06;;;8.39;100.00
61697;BME280;47610;52.252;20.922;2023-02-18T13:21:27;99362.46;;;8.20;100.00
61697;BME280;47610;52.252;20.922;2023-02-18T13:26:35;99361.89;;;7.98;100.00
61697;BME280;47610;52.252;20.922;2023-02-18T13:31:50;99368.16;;;7.84;100.00
61697;BME280;47610;52.252;20.922;2023-02-18T13:37:06;99366.90;;;7.63;100.00
61697;BME280;47610;52.252;20.922;2023-02-18T13:42:34;99365.61;;;7.44;100.00
61697;BME280;47610;52.252;20.922;2023-02-18T13:47:42;99371.59;;;7.23;100.00
61697;BME280;47610;52.252;20.922;2023-02-18T13:52:56;99362.43;;;7.10;100.00
61697;BME280;47610;52.252;20.922;2023-02-18T13:58:03;99367.22;;;7.02;100.00
61697;BME280;47610;52.252;20.922;2023-02-18T14:03:32;99363.83;;;6.94;100.00
61697;BME280;47610;52.252;20.922;2023-02-18T14:08:40;99368.83;;;6.84;100.00
61697;BME280;47610;52.252;20.922;2023-02-18T14:13:49;99361.46;;;6.72;100.00
61697;BME280;47610;52.252;20.922;2023-02-18T14:19:24;99364.48;;;6.59;100.00
61697;BME280;47610;52.252;20.922;2023-02-18T14:30:03;99358.73;;;6.41;100.00
61697;BME280;47610;52.252;20.922;2023-02-18T14:35:28;99348.19;;;6.34;100.00
61697;BME280;47610;52.252;20.922;2023-02-18T14:41:07;99340.10;;;6.28;100.00
61697;BME280;47610;52.252;20.922;2023-02-18T14:46:31;99325.01;;;6.22;100.00
61697;BME280;47610;52.252;20.922;2023-02-18T14:51:40;99324.95;;;6.20;100.00
61697;BME280;47610;52.252;20.922;2023-02-18T14:56:58;99327.63;;;6.20;100.00
61697;BME280;47610;52.252;20.922;2023-02-18T15:02:08;99326.88;;;6.18;100.00
61697;BME280;47610;52.252;20.922;2023-02-18T15:07:25;99326.64;;;6.13;100.00
61697;BME280;47610;52.252;20.922;2023-02-18T15:12:26;99337.13;;;6.03;100.00
61697;BME280;47610;52.252;20.922;2023-02-18T15:17:35;99347.01;;;5.87;100.00
61697;BME280;47610;52.252;20.922;2023-02-18T15:22:42;99349.87;;;5.73;100.00
61697;BME280;47610;52.252;20.922;2023-02-18T15:27:50;99345.35;;;5.58;100.00
61697;BME280;47610;52.252;20.922;2023-02-18T15:33:00;99348.46;;;5.44;100.00
61697;BME280;47610;52.252;20.922;2023-02-18T15:38:17;99348.70;;;5.24;100.00
61697;BME280;47610;52.252;20.922;2023-02-18T15:43:28;99350.95;;;5.05;100.00
61697;BME280;47610;52.252;20.922;2023-02-18T15:48:44;99344.33;;;4.85;100.00
61697;BME280;47610;52.252;20.922;2023-02-18T15:53:54;99342.23;;;4.71;100.00
61697;BME280;47610;52.252;20.922;2023-02-18T15:59:23;99337.14;;;4.58;100.00
61697;BME280;47610;52.252;20.922;2023-02-18T16:04:33;99347.09;;;4.49;100.00
61697;BME280;47610;52.252;20.922;2023-02-18T16:09:42;99338.75;;;4.41;100.00
61697;BME280;47610;52.252;20.922;2023-02-18T16:14:50;99333.64;;;4.28;100.00
61697;BME280;47610;52.252;20.922;2023-02-18T16:20:13;99342.48;;;4.31;100.00
61697;BME280;47610;52.252;20.922;2023-02-18T16:25:25;99340.67;;;4.32;100.00
61697;BME280;47610;52.252;20.922;2023-02-18T16:30:33;99337.41;;;4.30;100.00
61697;BME280;47610;52.252;20.922;2023-02-18T16:35:43;99343.77;;;4.29;100.00
61697;BME280;47610;52.252;20.922;2023-02-18T16:50:41;99342.00;;;4.20;100.00
61697;BME280;47610;52.252;20.922;2023-02-18T16:55:44;99341.67;;;4.13;100.00
61697;BME280;47610;52.252;20.922;2023-02-18T17:00:51;99343.03;;;4.11;100.00
61697;BME280;47610;52.252;20.922;2023-02-18T17:05:55;99341.81;;;4.11;100.00
61697;BME280;47610;52.252;20.922;2023-02-18T17:11:01;99346.36;;;4.13;100.00
61697;BME280;47610;52.252;20.922;2023-02-18T17:16:11;99341.46;;;4.14;100.00
61697;BME280;47610;52.252;20.922;2023-02-18T17:21:18;99328.06;;;4.13;100.00
61697;BME280;47610;52.252;20.922;2023-02-18T17:26:25;99336.01;;;4.12;100.00
61697;BME280;47610;52.252;20.922;2023-02-18T17:31:33;99334.48;;;4.11;100.00
61697;BME280;47610;52.252;20.922;2023-02-18T17:36:39;99341.70;;;4.11;100.00
61697;BME280;47610;52.252;20.922;2023-02-18T17:41:45;99345.16;;;4.12;100.00
61697;BME280;47610;52.252;20.922;2023-02-18T17:46:50;99345.30;;;4.11;100.00
61697;BME280;47610;52.252;20.922;2023-02-18T17:51:54;99335.66;;;4.10;100.00
61697;BME280;47610;52.252;20.922;2023-02-18T17:56:59;99333.33;;;4.11;100.00
61697;BME280;47610;52.252;20.922;2023-02-18T18:02:05;99326.45;;;4.10;100.00
61697;BME280;47610;52.252;20.922;2023-02-18T18:07:20;99318.45;;;4.10;100.00
61697;BME280;47610;52.252;20.922;2023-02-18T18:12:26;99316.81;;;4.11;100.00
61697;BME280;47610;52.252;20.922;2023-02-18T18:17:31;99309.98;;;4.10;100.00
61697;BME280;47610;52.252;20.922;2023-02-18T18:22:37;99307.71;;;4.04;100.00
61697;BME280;47610;52.252;20.922;2023-02-18T18:27:43;99303.36;;;3.99;100.00
61697;BME280;47610;52.252;20.922;2023-02-18T18:32:52;99306.90;;;3.93;100.00
61697;BME280;47610;52.252;20.922;2023-02-18T18:38:04;99315.02;;;3.88;100.00
61697;BME280;47610;52.252;20.922;2023-02-18T18:43:23;99312.85;;;3.88;100.00
61697;BME280;47610;52.252;20.922;2023-02-18T18:48:27;99316.30;;;3.89;100.00
61697;BME280;47610;52.252;20.922;2023-02-18T18:53:34;99307.77;;;3.87;100.00
61697;BME280;47610;52.252;20.922;2023-02-18T18:58:40;99307.32;;;3.85;100.00
61697;BME280;47610;52.252;20.922;2023-02-18T19:10:58;99331.42;;;3.90;100.00
61697;BME280;47610;52.252;20.922;2023-02-18T19:16:13;99342.39;;;3.85;100.00
61697;BME280;47610;52.252;20.922;2023-02-18T19:21:21;99349.95;;;3.79;100.00
61697;BME280;47610;52.252;20.922;2023-02-18T19:26:26;99353.19;;;3.71;100.00
61697;BME280;47610;52.252;20.922;2023-02-18T19:31:30;99366.79;;;3.66;100.00
61697;BME280;47610;52.252;20.922;2023-02-18T19:36:33;99365.30;;;3.64;100.00
61697;BME280;47610;52.252;20.922;2023-02-18T19:41:37;99358.70;;;3.58;100.00
61697;BME280;47610;52.252;20.922;2023-02-18T19:46:41;99370.38;;;3.56;100.00
61697;BME280;47610;52.252;20.922;2023-02-18T19:51:48;99380.21;;;3.54;100.00
61697;BME280;47610;52.252;20.922;2023-02-18T19:56:51;99390.04;;;3.53;100.00
61697;BME280;47610;52.252;20.922;2023-02-18T20:01:55;99392.06;;;3.52;100.00
61697;BME280;47610;52.252;20.922;2023-02-18T20:06:58;99408.52;;;3.52;100.00
61697;BME280;47610;52.252;20.922;2023-02-18T20:12:02;99424.94;;;3.53;100.00
61697;BME280;47610;52.252;20.922;2023-02-18T20:17:10;99436.98;;;3.55;100.00
61697;BME280;47610;52.252;20.922;2023-02-18T20:22:13;99438.63;;;3.56;100.00
61697;BME280;47610;52.252;20.922;2023-02-18T20:27:17;99434.88;;;3.57;100.00
61697;BME280;47610;52.252;20.922;2023-02-18T20:32:23;99447.16;;;3.59;100.00
61697;BME280;47610;52.252;20.922;2023-02-18T20:37:29;99451.77;;;3.58;100.00
61697;BME280;47610;52.252;20.922;2023-02-18T20:42:32;99458.14;;;3.58;100.00
61697;BME280;47610;52.252;20.922;2023-02-18T20:47:35;99460.27;;;3.58;100.00
61697;BME280;47610;52.252;20.922;2023-02-18T20:52:41;99463.10;;;3.63;100.00
61697;BME280;47610;52.252;20.922;2023-02-18T20:57:44;99479.32;;;3.67;100.00
61697;BME280;47610;52.252;20.922;2023-02-18T21:02:47;99484.14;;;3.68;100.00
61697;BME280;47610;52.252;20.922;2023-02-18T21:07:51;99488.80;;;3.67;100.00
61697;BME280;47610;52.252;20.922;2023-02-18T21:12:54;99491.84;;;3.68;100.00
61697;BME280;47610;52.252;20.922;2023-02-18T21:17:58;99490.73;;;3.70;100.00
61697;BME280;47610;52.252;20.922;2023-02-18T21:30:11;99503.67;;;3.73;100.00
61697;BME280;47610;52.252;20.922;2023-02-18T21:35:15;99503.36;;;3.70;100.00
61697;BME280;47610;52.252;20.922;2023-02-18T21:40:19;99515.39;;;3.62;100.00
61697;BME280;47610;52.252;20.922;2023-02-18T21:45:23;99527.84;;;3.42;100.00
61697;BME280;47610;52.252;20.922;2023-02-18T21:50:28;99541.06;;;3.21;100.00
61697;BME280;47610;52.252;20.922;2023-02-18T21:55:33;99538.23;;;2.97;100.00
61697;BME280;47610;52.252;20.922;2023-02-18T22:00:37;99555.27;;;2.76;100.00
61697;BME280;47610;52.252;20.922;2023-02-18T22:05:43;99570.05;;;2.58;100.00
61697;BME280;47610;52.252;20.922;2023-02-18T22:10:46;99582.68;;;2.43;100.00
61697;BME280;47610;52.252;20.922;2023-02-18T22:15:56;99579.35;;;2.30;100.00
61697;BME280;47610;52.252;20.922;2023-02-18T22:21:07;99589.48;;;2.27;100.00
61697;BME280;47610;52.252;20.922;2023-02-18T22:26:11;99595.81;;;2.22;100.00
61697;BME280;47610;52.252;20.922;2023-02-18T22:31:14;99600.94;;;2.11;100.00
61697;BME280;47610;52.252;20.922;2023-02-18T22:36:19;99608.55;;;2.01;100.00
61697;BME280;47610;52.252;20.922;2023-02-18T22:41:25;99614.52;;;1.90;100.00
61697;BME280;47610;52.252;20.922;2023-02-18T22:46:31;99616.77;;;1.80;100.00
61697;BME280;47610;52.252;20.922;2023-02-18T22:51:45;99623.79;;;1.71;100.00
61697;BME280;47610;52.252;20.922;2023-02-18T22:56:55;99616.08;;;1.76;100.00
61697;BME280;47610;52.252;20.922;2023-02-18T23:02:01;99621.11;;;1.77;100.00
61697;BME280;47610;52.252;20.922;2023-02-18T23:07:06;99623.41;;;1.76;100.00
61697;BME280;47610;52.252;20.922;2023-02-18T23:12:09;99630.90;;;1.83;100.00
61697;BME280;47610;52.252;20.922;2023-02-18T23:17:14;99639.84;;;1.92;100.00
61697;BME280;47610;52.252;20.922;2023-02-18T23:22:18;99651.96;;;2.02;100.00
61697;BME280;47610;52.252;20.922;2023-02-18T23:27:22;99652.38;;;2.11;100.00
61697;BME280;47610;52.252;20.922;2023-02-18T23:32:28;99657.02;;;2.18;100.00
61697;BME280;47610;52.252;20.922;2023-02-18T23:37:30;99664.92;;;2.24;100.00
61697;BME280;47610;52.252;20.922;2023-02-18T23:49:54;99674.73;;;2.37;100.00
61697;BME280;47610;52.252;20.922;2023-02-18T23:55:00;99682.23;;;2.39;100.00
